sensor_id;sensor_type;location;lat;lon;timestamp;pressure;altitude;pressure_sealevel;temperature;humidity
19023;BME280;35226;48.606;8.858;2023-03-24T00:02:20;95466.34;;;11.73;100.00
19023;BME280;35226;48.606;8.858;2023-03-24T00:04:49;95462.66;;;11.76;100.00
19023;BME280;35226;48.606;8.858;2023-03-24T00:07:17;95456.69;;;11.68;100.00
19023;BME280;35226;48.606;8.858;2023-03-24T00:09:44;95463.56;;;11.73;100.00
19023;BME280;35226;48.606;8.858;2023-03-24T00:12:11;95468.19;;;11.76;100.00
19023;BME280;35226;48.606;8.858;2023-03-24T00:14:39;95460.34;;;11.74;100.00
19023;BME280;35226;48.606;8.858;2023-03-24T00:17:06;95451.09;;;11.77;100.00
19023;BME280;35226;48.606;8.858;2023-03-24T00:19:34;95461.56;;;11.73;100.00
19023;BME280;35226;48.606;8.858;2023-03-24T00:22:07;95447.75;;;11.73;100.00
19023;BME280;35226;48.606;8.858;2023-03-24T00:24:34;95444.34;;;11.78;100.00
19023;BME280;35226;48.606;8.858;2023-03-24T00:27:00;95455.59;;;11.75;100.00
19023;BME280;35226;48.606;8.858;2023-03-24T00:29:27;95451.50;;;11.61;100.00
19023;BME280;35226;48.606;8.858;2023-03-24T00:31:53;95452.72;;;11.60;100.00
19023;BME280;35226;48.606;8.858;2023-03-24T00:34:19;95450.13;;;11.57;100.00
19023;BME280;35226;48.606;8.858;2023-03-24T00:36:50;95437.66;;;11.61;100.00
19023;BME280;35226;48.606;8.858;2023-03-24T00:39:19;95435.44;;;11.50;100.00
19023;BME280;35226;48.606;8.858;2023-03-24T00:41:46;95435.47;;;11.41;100.00
19023;BME280;35226;48.606;8.858;2023-03-24T00:44:14;95420.00;;;11.59;100.00
19023;BME280;35226;48.606;8.858;2023-03-24T00:46:46;95420.84;;;11.50;100.00
19023;BME280;35226;48.606;8.858;2023-03-24T00:49:30;95406.38;;;11.55;100.00
19023;BME280;35226;48.606;8.858;2023-03-24T00:52:13;95396.69;;;11.50;100.00
19023;BME280;35226;48.606;8.858;2023-03-24T00:54:40;95394.81;;;11.57;100.00
19023;BME280;35226;48.606;8.858;2023-03-24T00:57:07;95392.09;;;11.47;100.00
19023;BME280;35226;48.606;8.858;2023-03-24T00:59:34;95389.59;;;11.35;100.00
19023;BME280;35226;48.606;8.858;2023-03-24T01:02:10;95386.94;;;11.40;100.00
19023;BME280;35226;48.606;8.858;2023-03-24T01:04:40;95378.63;;;11.40;100.00
19023;BME280;35226;48.606;8.858;2023-03-24T01:07:06;95378.03;;;11.36;100.00
19023;BME280;35226;48.606;8.858;2023-03-24T01:09:36;95375.06;;;11.25;100.00
19023;BME280;35226;48.606;8.858;2023-03-24T01:12:04;95377.63;;;11.29;100.00
19023;BME280;35226;48.606;8.858;2023-03-24T01:14:31;95370.53;;;11.13;100.00
19023;BME280;35226;48.606;8.858;2023-03-24T01:16:58;95360.47;;;11.25;100.00
19023;BME280;35226;48.606;8.858;2023-03-24T01:19:24;95354.44;;;11.26;100.00
19023;BME280;35226;48.606;8.858;2023-03-24T01:21:51;95356.63;;;11.22;100.00
19023;BME280;35226;48.606;8.858;2023-03-24T01:24:20;95352.75;;;11.29;100.00
19023;BME280;35226;48.606;8.858;2023-03-24T01:26:46;95352.69;;;11.14;100.00
19023;BME280;35226;48.606;8.858;2023-03-24T01:29:12;95353.00;;;11.16;100.00
19023;BME280;35226;48.606;8.858;2023-03-24T01:31:37;95348.03;;;11.20;100.00
19023;BME280;35226;48.606;8.858;2023-03-24T01:34:03;95344.22;;;11.18;100.00
19023;BME280;35226;48.606;8.858;2023-03-24T01:36:29;95347.56;;;11.22;100.00
19023;BME280;35226;48.606;8.858;2023-03-24T01:38:55;95343.66;;;11.13;100.00
19023;BME280;35226;48.606;8.858;2023-03-24T01:41:23;95342.56;;;11.11;100.00
19023;BME280;35226;48.606;8.858;2023-03-24T01:43:48;95346.56;;;10.86;100.00
19023;BME280;35226;48.606;8.858;2023-03-24T01:46:18;95338.84;;;10.90;100.00
19023;BME280;35226;48.606;8.858;2023-03-24T01:49:03;95340.63;;;11.02;100.00
19023;BME280;35226;48.606;8.858;2023-03-24T01:51:34;95349.09;;;10.99;100.00
19023;BME280;35226;48.606;8.858;2023-03-24T01:54:07;95337.72;;;10.97;100.00
19023;BME280;35226;48.606;8.858;2023-03-24T01:56:39;95346.50;;;10.95;100.00
19023;BME280;35226;48.606;8.858;2023-03-24T01:59:13;95349.78;;;10.85;100.00
19023;BME280;35226;48.606;8.858;2023-03-24T02:02:05;95350.84;;;10.87;100.00
19023;BME280;35226;48.606;8.858;2023-03-24T02:04:43;95352.97;;;10.92;100.00
19023;BME280;35226;48.606;8.858;2023-03-24T02:07:26;95340.53;;;10.88;100.00
19023;BME280;35226;48.606;8.858;2023-03-24T02:09:54;95349.13;;;10.90;100.00
19023;BME280;35226;48.606;8.858;2023-03-24T02:12:19;95349.91;;;10.90;100.00
19023;BME280;35226;48.606;8.858;2023-03-24T02:14:46;95339.91;;;10.93;100.00
19023;BME280;35226;48.606;8.858;2023-03-24T02:46:22;95310.69;;;11.25;100.00
19023;BME280;35226;48.606;8.858;2023-03-24T02:49:10;95310.47;;;11.13;100.00
19023;BME280;35226;48.606;8.858;2023-03-24T02:51:57;95317.53;;;11.15;100.00
19023;BME280;35226;48.606;8.858;2023-03-24T03:05:52;95302.72;;;11.03;100.00
19023;BME280;35226;48.606;8.858;2023-03-24T03:08:20;95305.88;;;11.10;100.00
19023;BME280;35226;48.606;8.858;2023-03-24T03:10:48;95295.88;;;11.13;100.00
19023;BME280;35226;48.606;8.858;2023-03-24T03:13:21;95295.47;;;11.05;100.00
19023;BME280;35226;48.606;8.858;2023-03-24T03:15:51;95289.28;;;11.10;100.00
19023;BME280;35226;48.606;8.858;2023-03-24T03:18:23;95287.41;;;11.17;100.00
19023;BME280;35226;48.606;8.858;2023-03-24T03:21:00;95298.69;;;11.28;100.00
19023;BME280;35226;48.606;8.858;2023-03-24T03:23:36;95290.81;;;11.35;100.00
19023;BME280;35226;48.606;8.858;2023-03-24T03:26:05;95290.03;;;11.35;100.00
19023;BME280;35226;48.606;8.858;2023-03-24T03:28:37;95291.69;;;11.41;100.00
19023;BME280;35226;48.606;8.858;2023-03-24T03:31:07;95290.59;;;11.39;100.00
19023;BME280;35226;48.606;8.858;2023-03-24T03:33:38;95291.38;;;11.39;100.00
19023;BME280;35226;48.606;8.858;2023-03-24T03:38:36;95287.47;;;11.46;100.00
19023;BME280;35226;48.606;8.858;2023-03-24T03:41:05;95292.53;;;11.47;100.00
19023;BME280;35226;48.606;8.858;2023-03-24T03:43:34;95293.88;;;11.52;100.00
19023;BME280;35226;48.606;8.858;2023-03-24T03:46:02;95292.47;;;11.57;100.00
19023;BME280;35226;48.606;8.858;2023-03-24T03:48:34;95290.34;;;11.52;100.00
19023;BME280;35226;48.606;8.858;2023-03-24T03:51:01;95286.19;;;11.71;100.00
19023;BME280;35226;48.606;8.858;2023-03-24T03:53:52;95296.03;;;11.72;100.00
19023;BME280;35226;48.606;8.858;2023-03-24T03:56:19;95287.53;;;11.75;100.00
19023;BME280;35226;48.606;8.858;2023-03-24T03:58:55;95295.84;;;11.75;100.00
19023;BME280;35226;48.606;8.858;2023-03-24T04:01:25;95284.13;;;11.80;100.00
19023;BME280;35226;48.606;8.858;2023-03-24T04:17:09;95249.94;;;11.69;100.00
19023;BME280;35226;48.606;8.858;2023-03-24T04:20:12;95251.38;;;11.64;100.00
19023;BME280;35226;48.606;8.858;2023-03-24T04:31:31;95265.84;;;11.44;100.00
19023;BME280;35226;48.606;8.858;2023-03-24T04:36:44;95281.38;;;11.42;100.00
19023;BME280;35226;48.606;8.858;2023-03-24T04:39:42;95280.16;;;11.43;100.00
19023;BME280;35226;48.606;8.858;2023-03-24T04:42:22;95289.31;;;11.49;100.00
19023;BME280;35226;48.606;8.858;2023-03-24T04:44:50;95295.03;;;11.45;100.00
19023;BME280;35226;48.606;8.858;2023-03-24T04:47:38;95300.66;;;11.51;100.00
19023;BME280;35226;48.606;8.858;2023-03-24T04:50:39;95309.03;;;11.42;100.00
19023;BME280;35226;48.606;8.858;2023-03-24T04:53:17;95323.03;;;11.38;100.00
19023;BME280;35226;48.606;8.858;2023-03-24T04:58:47;95330.31;;;11.50;100.00
19023;BME280;35226;48.606;8.858;2023-03-24T05:01:15;95342.53;;;11.59;100.00
19023;BME280;35226;48.606;8.858;2023-03-24T05:03:48;95356.50;;;11.64;100.00
19023;BME280;35226;48.606;8.858;2023-03-24T05:06:14;95359.66;;;11.72;100.00
19023;BME280;35226;48.606;8.858;2023-03-24T05:08:41;95368.38;;;11.79;100.00
19023;BME280;35226;48.606;8.858;2023-03-24T05:11:06;95373.78;;;11.74;100.00
19023;BME280;35226;48.606;8.858;2023-03-24T05:13:33;95374.44;;;11.69;100.00
19023;BME280;35226;48.606;8.858;2023-03-24T05:16:01;95384.16;;;11.64;100.00
19023;BME280;35226;48.606;8.858;2023-03-24T05:18:46;95381.28;;;11.59;100.00
19023;BME280;35226;48.606;8.858;2023-03-24T05:21:12;95388.72;;;11.53;100.00
19023;BME280;35226;48.606;8.858;2023-03-24T05:23:38;95385.69;;;11.41;100.00
19023;BME280;35226;48.606;8.858;2023-03-24T05:26:04;95382.63;;;11.39;100.00
19023;BME280;35226;48.606;8.858;2023-03-24T05:28:35;95394.47;;;11.40;100.00
19023;BME280;35226;48.606;8.858;2023-03-24T05:31:01;95401.28;;;11.30;100.00
19023;BME280;35226;48.606;8.858;2023-03-24T05:33:40;95400.06;;;11.31;100.00
19023;BME280;35226;48.606;8.858;2023-03-24T05:36:09;95400.53;;;11.29;100.00
19023;BME280;35226;48.606;8.858;2023-03-24T05:38:35;95406.25;;;11.26;100.00
19023;BME280;35226;48.606;8.858;2023-03-24T05:41:01;95403.81;;;11.19;100.00
19023;BME280;35226;48.606;8.858;2023-03-24T05:43:34;95406.81;;;11.30;100.00
19023;BME280;35226;48.606;8.858;2023-03-24T05:46:07;95407.28;;;11.28;100.00
19023;BME280;35226;48.606;8.858;2023-03-24T05:48:39;95410.03;;;11.28;100.00
19023;BME280;35226;48.606;8.858;2023-03-24T05:51:14;95410.81;;;11.29;100.00
19023;BME280;35226;48.606;8.858;2023-03-24T05:53:40;95408.06;;;11.29;100.00
19023;BME280;35226;48.606;8.858;2023-03-24T05:56:14;95411.25;;;11.03;100.00
19023;BME280;35226;48.606;8.858;2023-03-24T05:58:59;95410.00;;;11.13;100.00
19023;BME280;35226;48.606;8.858;2023-03-24T06:01:44;95408.44;;;11.12;100.00
19023;BME280;35226;48.606;8.858;2023-03-24T06:04:19;95407.59;;;10.97;100.00
19023;BME280;35226;48.606;8.858;2023-03-24T06:06:48;95414.19;;;11.00;100.00
19023;BME280;35226;48.606;8.858;2023-03-24T06:09:17;95425.53;;;11.02;100.00
19023;BME280;35226;48.606;8.858;2023-03-24T06:11:44;95420.75;;;11.11;100.00
19023;BME280;35226;48.606;8.858;2023-03-24T06:14:11;95417.50;;;11.13;100.00
19023;BME280;35226;48.606;8.858;2023-03-24T06:16:48;95427.84;;;11.03;100.00
19023;BME280;35226;48.606;8.858;2023-03-24T06:19:16;95421.34;;;11.16;100.00
19023;BME280;35226;48.606;8.858;2023-03-24T06:22:04;95424.16;;;11.06;100.00
19023;BME280;35226;48.606;8.858;2023-03-24T06:24:35;95434.44;;;11.06;100.00
19023;BME280;35226;48.606;8.858;2023-03-24T06:27:05;95445.97;;;11.04;100.00
19023;BME280;35226;48.606;8.858;2023-03-24T06:29:34;95447.00;;;11.16;100.00
19023;BME280;35226;48.606;8.858;2023-03-24T06:32:01;95457.09;;;11.19;100.00
19023;BME280;35226;48.606;8.858;2023-03-24T06:34:30;95469.56;;;11.15;100.00
19023;BME280;35226;48.606;8.858;2023-03-24T06:37:17;95479.06;;;11.23;100.00
19023;BME280;35226;48.606;8.858;2023-03-24T06:39:44;95483.84;;;11.13;100.00
19023;BME280;35226;48.606;8.858;2023-03-24T06:42:12;95488.16;;;11.14;100.00
19023;BME280;35226;48.606;8.858;2023-03-24T06:44:38;95487.53;;;11.10;100.00
19023;BME280;35226;48.606;8.858;2023-03-24T06:47:04;95496.94;;;11.03;100.00
19023;BME280;35226;48.606;8.858;2023-03-24T06:49:29;95514.78;;;10.93;100.00
19023;BME280;35226;48.606;8.858;2023-03-24T06:51:55;95522.78;;;10.91;100.00
19023;BME280;35226;48.606;8.858;2023-03-24T06:54:22;95530.56;;;11.02;100.00
19023;BME280;35226;48.606;8.858;2023-03-24T06:56:48;95530.13;;;11.03;100.00
19023;BME280;35226;48.606;8.858;2023-03-24T06:59:14;95537.66;;;10.94;100.00
19023;BME280;35226;48.606;8.858;2023-03-24T07:01:42;95547.94;;;10.93;100.00
19023;BME280;35226;48.606;8.858;2023-03-24T07:04:19;95555.00;;;11.03;100.00
19023;BME280;35226;48.606;8.858;2023-03-24T07:06:52;95558.38;;;10.98;100.00
19023;BME280;35226;48.606;8.858;2023-03-24T07:09:19;95563.63;;;10.96;100.00
19023;BME280;35226;48.606;8.858;2023-03-24T07:11:45;95558.06;;;10.87;100.00
19023;BME280;35226;48.606;8.858;2023-03-24T07:14:12;95588.47;;;10.87;100.00
19023;BME280;35226;48.606;8.858;2023-03-24T07:16:38;95591.38;;;11.02;100.00
19023;BME280;35226;48.606;8.858;2023-03-24T07:19:22;95583.69;;;10.97;100.00
19023;BME280;35226;48.606;8.858;2023-03-24T07:21:57;95575.28;;;10.91;100.00
19023;BME280;35226;48.606;8.858;2023-03-24T07:24:39;95581.69;;;10.97;100.00
19023;BME280;35226;48.606;8.858;2023-03-24T07:27:24;95576.94;;;11.07;100.00
19023;BME280;35226;48.606;8.858;2023-03-24T07:29:50;95580.63;;;11.04;100.00
19023;BME280;35226;48.606;8.858;2023-03-24T07:32:20;95579.56;;;11.01;100.00
19023;BME280;35226;48.606;8.858;2023-03-24T07:34:46;95592.00;;;11.06;100.00
19023;BME280;35226;48.606;8.858;2023-03-24T07:37:12;95584.16;;;11.04;100.00
19023;BME280;35226;48.606;8.858;2023-03-24T07:39:39;95587.06;;;11.10;100.00
19023;BME280;35226;48.606;8.858;2023-03-24T07:42:05;95588.47;;;11.05;100.00
19023;BME280;35226;48.606;8.858;2023-03-24T07:45:00;95589.25;;;11.06;100.00
19023;BME280;35226;48.606;8.858;2023-03-24T07:47:25;95596.59;;;11.09;100.00
19023;BME280;35226;48.606;8.858;2023-03-24T07:49:51;95592.13;;;11.11;100.00
19023;BME280;35226;48.606;8.858;2023-03-24T07:52:17;95597.97;;;11.13;100.00
19023;BME280;35226;48.606;8.858;2023-03-24T07:54:47;95604.09;;;11.18;100.00
19023;BME280;35226;48.606;8.858;2023-03-24T07:57:33;95609.19;;;11.10;100.00
19023;BME280;35226;48.606;8.858;2023-03-24T08:00:06;95627.28;;;11.20;100.00
19023;BME280;35226;48.606;8.858;2023-03-24T08:02:52;95619.13;;;11.17;100.00
19023;BME280;35226;48.606;8.858;2023-03-24T08:05:43;95629.91;;;11.15;100.00
19023;BME280;35226;48.606;8.858;2023-03-24T08:08:30;95630.34;;;11.22;100.00
19023;BME280;35226;48.606;8.858;2023-03-24T08:10:56;95640.03;;;11.18;100.00
19023;BME280;35226;48.606;8.858;2023-03-24T08:13:22;95635.28;;;11.18;100.00
19023;BME280;35226;48.606;8.858;2023-03-24T08:15:54;95624.69;;;11.26;100.00
19023;BME280;35226;48.606;8.858;2023-03-24T08:18:21;95629.91;;;11.24;100.00
19023;BME280;35226;48.606;8.858;2023-03-24T08:20:48;95615.47;;;11.20;100.00
19023;BME280;35226;48.606;8.858;2023-03-24T08:23:14;95605.63;;;11.19;100.00
19023;BME280;35226;48.606;8.858;2023-03-24T08:25:40;95612.69;;;11.20;100.00
19023;BME280;35226;48.606;8.858;2023-03-24T08:28:06;95610.09;;;11.16;100.00
19023;BME280;35226;48.606;8.858;2023-03-24T08:30:31;95610.84;;;11.17;100.00
19023;BME280;35226;48.606;8.858;2023-03-24T08:32:59;95597.31;;;11.19;100.00
19023;BME280;35226;48.606;8.858;2023-03-24T08:35:31;95591.03;;;11.18;100.00
19023;BME280;35226;48.606;8.858;2023-03-24T08:37:58;95590.56;;;11.20;100.00
19023;BME280;35226;48.606;8.858;2023-03-24T08:40:25;95570.44;;;11.19;100.00
19023;BME280;35226;48.606;8.858;2023-03-24T08:42:54;95604.28;;;11.14;100.00
19023;BME280;35226;48.606;8.858;2023-03-24T08:45:21;95620.06;;;11.23;100.00
19023;BME280;35226;48.606;8.858;2023-03-24T08:47:49;95601.31;;;11.18;100.00
19023;BME280;35226;48.606;8.858;2023-03-24T08:50:17;95621.75;;;11.20;100.00
19023;BME280;35226;48.606;8.858;2023-03-24T08:52:43;95621.41;;;11.36;100.00
19023;BME280;35226;48.606;8.858;2023-03-24T08:55:13;95639.38;;;11.41;100.00
19023;BME280;35226;48.606;8.858;2023-03-24T08:57:39;95628.78;;;11.39;100.00
19023;BME280;35226;48.606;8.858;2023-03-24T09:00:05;95619.88;;;11.35;100.00
19023;BME280;35226;48.606;8.858;2023-03-24T09:02:38;95609.25;;;11.43;100.00
19023;BME280;35226;48.606;8.858;2023-03-24T09:05:04;95607.56;;;11.45;100.00
19023;BME280;35226;48.606;8.858;2023-03-24T09:07:30;95588.22;;;11.45;100.00
19023;BME280;35226;48.606;8.858;2023-03-24T09:09:56;95591.41;;;11.53;100.00
19023;BME280;35226;48.606;8.858;2023-03-24T09:12:21;95584.13;;;11.65;100.00
19023;BME280;35226;48.606;8.858;2023-03-24T09:14:48;95578.38;;;11.44;100.00
19023;BME280;35226;48.606;8.858;2023-03-24T09:17:14;95546.94;;;11.57;100.00
19023;BME280;35226;48.606;8.858;2023-03-24T09:19:40;95549.81;;;11.71;100.00
19023;BME280;35226;48.606;8.858;2023-03-24T09:22:06;95556.25;;;11.77;100.00
19023;BME280;35226;48.606;8.858;2023-03-24T09:24:31;95568.50;;;11.85;100.00
19023;BME280;35226;48.606;8.858;2023-03-24T09:26:57;95570.72;;;12.05;100.00
19023;BME280;35226;48.606;8.858;2023-03-24T09:29:22;95550.81;;;12.16;100.00
19023;BME280;35226;48.606;8.858;2023-03-24T09:31:48;95536.03;;;12.19;100.00
19023;BME280;35226;48.606;8.858;2023-03-24T09:34:14;95525.72;;;12.19;100.00
19023;BME280;35226;48.606;8.858;2023-03-24T09:36:40;95514.94;;;12.21;100.00
19023;BME280;35226;48.606;8.858;2023-03-24T09:39:05;95524.78;;;12.22;100.00
19023;BME280;35226;48.606;8.858;2023-03-24T09:41:31;95529.06;;;12.23;100.00
19023;BME280;35226;48.606;8.858;2023-03-24T09:44:06;95533.59;;;12.36;100.00
19023;BME280;35226;48.606;8.858;2023-03-24T09:46:50;95511.84;;;12.43;100.00
19023;BME280;35226;48.606;8.858;2023-03-24T09:49:21;95502.59;;;12.61;100.00
19023;BME280;35226;48.606;8.858;2023-03-24T09:51:49;95493.81;;;12.77;100.00
19023;BME280;35226;48.606;8.858;2023-03-24T09:54:20;95472.41;;;12.92;100.00
19023;BME280;35226;48.606;8.858;2023-03-24T09:56:54;95492.19;;;13.29;100.00
19023;BME280;35226;48.606;8.858;2023-03-24T10:01:53;95501.28;;;13.30;100.00
19023;BME280;35226;48.606;8.858;2023-03-24T10:04:21;95487.06;;;13.43;100.00
19023;BME280;35226;48.606;8.858;2023-03-24T10:06:53;95481.66;;;13.68;100.00
19023;BME280;35226;48.606;8.858;2023-03-24T10:09:33;95461.97;;;13.52;100.00
19023;BME280;35226;48.606;8.858;2023-03-24T10:20:37;95471.03;;;13.67;100.00
19023;BME280;35226;48.606;8.858;2023-03-24T10:23:32;95455.69;;;13.71;100.00
19023;BME280;35226;48.606;8.858;2023-03-24T10:31:30;95449.25;;;13.60;100.00
19023;BME280;35226;48.606;8.858;2023-03-24T10:33:56;95463.38;;;13.62;100.00
19023;BME280;35226;48.606;8.858;2023-03-24T10:36:22;95476.59;;;13.67;100.00
19023;BME280;35226;48.606;8.858;2023-03-24T10:38:50;95476.66;;;13.73;100.00
19023;BME280;35226;48.606;8.858;2023-03-24T10:41:21;95477.38;;;13.53;100.00
19023;BME280;35226;48.606;8.858;2023-03-24T10:43:49;95477.50;;;13.44;100.00
19023;BME280;35226;48.606;8.858;2023-03-24T10:46:19;95456.94;;;13.50;100.00
19023;BME280;35226;48.606;8.858;2023-03-24T10:51:32;95485.94;;;13.49;100.00
19023;BME280;35226;48.606;8.858;2023-03-24T10:54:21;95476.19;;;13.39;100.00
19023;BME280;35226;48.606;8.858;2023-03-24T10:56:49;95468.88;;;13.56;100.00
19023;BME280;35226;48.606;8.858;2023-03-24T10:59:39;95463.28;;;13.91;100.00
19023;BME280;35226;48.606;8.858;2023-03-24T11:04:39;95468.97;;;14.02;100.00
19023;BME280;35226;48.606;8.858;2023-03-24T11:07:15;95456.25;;;14.16;100.00
19023;BME280;35226;48.606;8.858;2023-03-24T11:09:43;95458.75;;;14.14;100.00
19023;BME280;35226;48.606;8.858;2023-03-24T11:12:21;95454.25;;;14.17;100.00
19023;BME280;35226;48.606;8.858;2023-03-24T11:14:47;95466.91;;;14.18;100.00
19023;BME280;35226;48.606;8.858;2023-03-24T11:17:13;95474.31;;;14.26;100.00
19023;BME280;35226;48.606;8.858;2023-03-24T11:19:49;95472.44;;;14.38;100.00
19023;BME280;35226;48.606;8.858;2023-03-24T11:22:17;95472.97;;;14.62;100.00
19023;BME280;35226;48.606;8.858;2023-03-24T11:24:49;95464.09;;;14.90;100.00
19023;BME280;35226;48.606;8.858;2023-03-24T11:27:17;95461.75;;;14.77;100.00
19023;BME280;35226;48.606;8.858;2023-03-24T11:29:48;95473.56;;;14.46;100.00
19023;BME280;35226;48.606;8.858;2023-03-24T11:32:24;95475.38;;;14.49;100.00
19023;BME280;35226;48.606;8.858;2023-03-24T11:35:02;95484.19;;;14.27;100.00
19023;BME280;35226;48.606;8.858;2023-03-24T11:37:33;95477.91;;;14.32;100.00
19023;BME280;35226;48.606;8.858;2023-03-24T11:45:39;95454.59;;;13.84;100.00
19023;BME280;35226;48.606;8.858;2023-03-24T11:48:16;95458.41;;;13.86;100.00
19023;BME280;35226;48.606;8.858;2023-03-24T11:50:46;95456.94;;;13.91;100.00
19023;BME280;35226;48.606;8.858;2023-03-24T11:53:21;95465.63;;;13.78;100.00
19023;BME280;35226;48.606;8.858;2023-03-24T12:03:47;95458.91;;;13.85;100.00
19023;BME280;35226;48.606;8.858;2023-03-24T12:06:32;95452.94;;;13.92;100.00
19023;BME280;35226;48.606;8.858;2023-03-24T12:17:28;95449.13;;;14.81;100.00
19023;BME280;35226;48.606;8.858;2023-03-24T12:23:03;95454.91;;;14.52;100.00
19023;BME280;35226;48.606;8.858;2023-03-24T12:33:51;95467.91;;;14.87;100.00
19023;BME280;35226;48.606;8.858;2023-03-24T12:36:18;95485.88;;;14.65;100.00
19023;BME280;35226;48.606;8.858;2023-03-24T12:44:15;95473.31;;;14.50;100.00
19023;BME280;35226;48.606;8.858;2023-03-24T12:46:56;95471.59;;;14.52;100.00
19023;BME280;35226;48.606;8.858;2023-03-24T12:49:49;95461.84;;;14.62;100.00
19023;BME280;35226;48.606;8.858;2023-03-24T12:52:41;95451.31;;;14.72;100.00
19023;BME280;35226;48.606;8.858;2023-03-24T12:55:17;95449.38;;;14.78;100.00
19023;BME280;35226;48.606;8.858;2023-03-24T12:57:48;95443.25;;;14.74;100.00
19023;BME280;35226;48.606;8.858;2023-03-24T13:00:24;95446.03;;;14.48;100.00
19023;BME280;35226;48.606;8.858;2023-03-24T13:03:05;95436.06;;;14.62;100.00
19023;BME280;35226;48.606;8.858;2023-03-24T13:05:38;95442.06;;;14.34;100.00
19023;BME280;35226;48.606;8.858;2023-03-24T13:08:20;95435.72;;;14.08;100.00
19023;BME280;35226;48.606;8.858;2023-03-24T13:10:57;95431.06;;;14.20;100.00
19023;BME280;35226;48.606;8.858;2023-03-24T13:13:42;95436.75;;;14.11;100.00
19023;BME280;35226;48.606;8.858;2023-03-24T13:16:15;95438.09;;;13.95;100.00
19023;BME280;35226;48.606;8.858;2023-03-24T13:18:46;95446.50;;;13.80;100.00
19023;BME280;35226;48.606;8.858;2023-03-24T13:21:17;95451.47;;;13.76;100.00
19023;BME280;35226;48.606;8.858;2023-03-24T13:23:51;95458.47;;;13.51;100.00
19023;BME280;35226;48.606;8.858;2023-03-24T13:32:04;95447.56;;;13.48;100.00
19023;BME280;35226;48.606;8.858;2023-03-24T13:34:48;95453.81;;;13.28;100.00
19023;BME280;35226;48.606;8.858;2023-03-24T13:37:20;95455.06;;;13.12;100.00
19023;BME280;35226;48.606;8.858;2023-03-24T13:39:51;95456.13;;;13.29;100.00
19023;BME280;35226;48.606;8.858;2023-03-24T13:42:31;95474.41;;;13.21;100.00
19023;BME280;35226;48.606;8.858;2023-03-24T13:45:03;95476.13;;;13.19;100.00
19023;BME280;35226;48.606;8.858;2023-03-24T13:47:51;95466.16;;;13.27;100.00
19023;BME280;35226;48.606;8.858;2023-03-24T13:50:19;95468.56;;;13.19;100.00
19023;BME280;35226;48.606;8.858;2023-03-24T13:52:47;95443.59;;;13.05;100.00
19023;BME280;35226;48.606;8.858;2023-03-24T13:55:26;95465.69;;;12.99;100.00
19023;BME280;35226;48.606;8.858;2023-03-24T13:57:59;95468.38;;;13.23;100.00
19023;BME280;35226;48.606;8.858;2023-03-24T14:00:28;95468.91;;;13.12;100.00
19023;BME280;35226;48.606;8.858;2023-03-24T14:03:11;95464.84;;;13.08;100.00
19023;BME280;35226;48.606;8.858;2023-03-24T14:05:55;95471.53;;;13.30;100.00
19023;BME280;35226;48.606;8.858;2023-03-24T14:08:41;95464.41;;;13.44;100.00
19023;BME280;35226;48.606;8.858;2023-03-24T14:14:10;95448.50;;;13.45;100.00
19023;BME280;35226;48.606;8.858;2023-03-24T14:22:32;95451.97;;;14.61;100.00
19023;BME280;35226;48.606;8.858;2023-03-24T14:25:01;95443.56;;;14.10;100.00
19023;BME280;35226;48.606;8.858;2023-03-24T14:27:41;95468.31;;;14.33;100.00
19023;BME280;35226;48.606;8.858;2023-03-24T14:30:20;95460.91;;;13.84;100.00
19023;BME280;35226;48.606;8.858;2023-03-24T14:32:53;95460.84;;;13.79;100.00
19023;BME280;35226;48.606;8.858;2023-03-24T14:38:00;95478.31;;;13.00;100.00
19023;BME280;35226;48.606;8.858;2023-03-24T14:40:38;95480.03;;;12.53;100.00
19023;BME280;35226;48.606;8.858;2023-03-24T14:45:54;95479.56;;;12.70;100.00
19023;BME280;35226;48.606;8.858;2023-03-24T14:48:41;95492.78;;;12.21;100.00
19023;BME280;35226;48.606;8.858;2023-03-24T14:53:41;95508.63;;;12.21;100.00
19023;BME280;35226;48.606;8.858;2023-03-24T14:56:12;95519.25;;;11.99;100.00
19023;BME280;35226;48.606;8.858;2023-03-24T14:58:39;95509.09;;;11.96;100.00
19023;BME280;35226;48.606;8.858;2023-03-24T15:01:09;95483.22;;;11.84;100.00
19023;BME280;35226;48.606;8.858;2023-03-24T15:03:42;95484.19;;;11.96;100.00
19023;BME280;35226;48.606;8.858;2023-03-24T15:06:16;95489.44;;;11.94;100.00
19023;BME280;35226;48.606;8.858;2023-03-24T15:08:50;95499.31;;;11.85;100.00
19023;BME280;35226;48.606;8.858;2023-03-24T15:11:22;95494.22;;;11.93;100.00
19023;BME280;35226;48.606;8.858;2023-03-24T15:13:51;95493.03;;;11.85;100.00
19023;BME280;35226;48.606;8.858;2023-03-24T15:16:23;95489.22;;;11.82;100.00
19023;BME280;35226;48.606;8.858;2023-03-24T15:21:47;95490.75;;;11.83;100.00
19023;BME280;35226;48.606;8.858;2023-03-24T15:26:46;95494.53;;;11.62;100.00
19023;BME280;35226;48.606;8.858;2023-03-24T15:29:12;95500.53;;;11.61;100.00
19023;BME280;35226;48.606;8.858;2023-03-24T15:31:38;95497.81;;;11.52;100.00
19023;BME280;35226;48.606;8.858;2023-03-24T15:36:53;95514.97;;;11.32;100.00
19023;BME280;35226;48.606;8.858;2023-03-24T15:39:26;95541.16;;;11.12;100.00
19023;BME280;35226;48.606;8.858;2023-03-24T15:41:51;95545.78;;;11.06;100.00
19023;BME280;35226;48.606;8.858;2023-03-24T15:44:20;95541.31;;;11.00;100.00
19023;BME280;35226;48.606;8.858;2023-03-24T15:46:48;95546.84;;;11.00;100.00
19023;BME280;35226;48.606;8.858;2023-03-24T15:49:48;95546.09;;;10.99;100.00
19023;BME280;35226;48.606;8.858;2023-03-24T15:52:35;95529.97;;;10.89;100.00
19023;BME280;35226;48.606;8.858;2023-03-24T15:55:26;95558.09;;;10.96;100.00
19023;BME280;35226;48.606;8.858;2023-03-24T15:57:54;95547.16;;;11.02;100.00